Time;durP1;ratioP1;P1;durP2;ratioP2;P2;SDS_P1;SDS_P2;PMS_P1;PMS_P2;Temp;Humidity;BMP_temperature;BMP_pressure;BME280_temperature;BME280_humidity;BME280_pressure;Samples;Min_cycle;Max_cycle;Signal;HPM_P1;HPM_P2
2023/05/28 00:01:19;;;;;;;13.68;8.02;;;;;;;-145.70;100.00;63560.63;4989616;28;20037;-62
2023/05/28 00:04:51;;;;;;;13.07;8.05;;;;;;;-145.70;100.00;63560.63;4996047;28;20044;-61
2023/05/28 00:08:18;;;;;;;11.18;7.85;;;;;;;-145.70;100.00;63560.63;4995088;28;20133;-61
2023/05/28 00:11:50;;;;;;;11.50;7.53;;;;;;;-145.70;100.00;63560.63;4999393;28;20482;-60
2023/05/28 00:15:18;;;;;;;14.38;8.40;;;;;;;-145.70;100.00;63560.63;4995835;28;20120;-59
2023/05/28 00:18:41;;;;;;;12.98;8.75;;;;;;;-145.70;100.00;63560.63;4999845;28;20491;-63
2023/05/28 00:22:13;;;;;;;13.43;8.43;;;;;;;-145.70;100.00;63560.63;4979633;28;20515;-61
2023/05/28 00:25:39;;;;;;;15.32;8.65;;;;;;;-145.70;100.00;63560.63;4991268;28;20037;-61
2023/05/28 00:29:03;;;;;;;11.15;7.75;;;;;;;-145.70;100.00;63560.63;5017270;28;20029;-60
2023/05/28 00:32:30;;;;;;;10.55;7.28;;;;;;;-145.70;100.00;63560.63;4999459;28;20389;-65
2023/05/28 00:35:57;;;;;;;11.55;8.05;;;;;;;-145.70;100.00;63560.63;5023973;28;20067;-60
2023/05/28 00:39:24;;;;;;;12.43;7.72;;;;;;;-145.70;100.00;63560.63;5026735;28;20086;-60
2023/05/28 00:42:58;;;;;;;11.52;8.13;;;;;;;-145.70;100.00;63560.63;5020613;28;20033;-60
2023/05/28 00:46:27;;;;;;;11.27;7.82;;;;;;;-145.70;100.00;63560.63;5019595;28;20772;-59
2023/05/28 00:49:57;;;;;;;10.93;7.60;;;;;;;-145.70;100.00;63560.63;5033349;28;20124;-61
2023/05/28 00:53:21;;;;;;;13.77;8.02;;;;;;;-145.70;100.00;63560.63;5037624;28;20594;-61
2023/05/28 00:56:57;;;;;;;12.10;8.35;;;;;;;-145.70;100.00;63560.63;5006225;28;20029;-61
2023/05/28 01:00:28;;;;;;;11.32;8.23;;;;;;;-145.70;100.00;63560.63;5019123;28;20033;-60
2023/05/28 01:03:52;;;;;;;13.15;8.43;;;;;;;-145.70;100.00;63560.63;5020775;28;20040;-60
2023/05/28 01:07:22;;;;;;;12.32;8.20;;;;;;;-145.70;100.00;63560.63;5015416;28;20029;-61
2023/05/28 01:10:49;;;;;;;13.80;8.88;;;;;;;-145.70;100.00;63560.63;5014290;28;20038;-62
2023/05/28 01:14:18;;;;;;;12.68;8.40;;;;;;;-145.70;100.00;63560.63;5019014;28;20037;-60
2023/05/28 01:17:47;;;;;;;12.30;8.35;;;;;;;-145.70;100.00;63560.63;5017240;28;20030;-61
2023/05/28 01:21:15;;;;;;;12.02;8.15;;;;;;;-145.70;100.00;63560.63;5033146;28;20029;-61
2023/05/28 01:24:46;;;;;;;12.50;8.85;;;;;;;-145.70;100.00;63560.63;5020767;28;20140;-60
2023/05/28 01:28:12;;;;;;;11.90;8.52;;;;;;;-145.70;100.00;63560.63;5004737;28;20060;-60
2023/05/28 01:32:06;;;;;;;14.52;8.85;;;;;;;-145.70;100.00;63560.63;5001345;28;20029;-60
2023/05/28 01:35:30;;;;;;;14.27;8.02;;;;;;;-145.70;100.00;63560.63;5013089;28;20037;-61
2023/05/28 01:39:01;;;;;;;10.95;7.72;;;;;;;-145.70;100.00;63560.63;5019028;28;20484;-62
2023/05/28 01:42:26;;;;;;;11.82;7.72;;;;;;;-145.70;100.00;63560.63;5016008;28;20060;-62
2023/05/28 01:45:52;;;;;;;12.18;7.80;;;;;;;-145.70;100.00;63560.63;5018954;28;20313;-62
2023/05/28 01:49:19;;;;;;;12.88;8.65;;;;;;;-145.70;100.00;63560.63;5018799;28;20187;-61
2023/05/28 01:52:48;;;;;;;14.05;8.45;;;;;;;-145.70;100.00;63560.63;5016105;28;20033;-62
2023/05/28 01:56:12;;;;;;;;;;;;;;;-145.70;100.00;63560.63;5015612;28;20029;-61
2023/05/28 01:59:37;;;;;;;11.70;7.68;;;;;;;-145.70;100.00;63560.63;5033561;28;19947;-63
2023/05/28 02:03:01;;;;;;;13.27;8.52;;;;;;;-145.70;100.00;63560.63;5011052;28;20029;-60
2023/05/28 02:06:32;;;;;;;12.10;8.40;;;;;;;-145.70;100.00;63560.63;5023566;28;20159;-59
2023/05/28 02:09:02;;;;;;;11.43;7.72;;;;;;;-145.70;100.00;63560.63;5019619;28;20608;-61
2023/05/28 02:12:29;;;;;;;12.55;8.18;;;;;;;-145.70;100.00;63560.63;5014470;28;20037;-62
2023/05/28 02:15:54;;;;;;;12.05;8.32;;;;;;;-145.70;100.00;63560.63;5006843;28;20037;-60
2023/05/28 02:19:18;;;;;;;10.43;8.23;;;;;;;-145.70;100.00;63560.63;5012727;28;20037;-60
2023/05/28 02:22:11;;;;;;;11.23;7.60;;;;;;;-145.70;100.00;63560.63;5020300;28;20059;-60
2023/05/28 02:25:35;;;;;;;12.68;7.45;;;;;;;-145.70;100.00;63560.63;5013762;28;20128;-62
2023/05/28 02:29:02;;;;;;;12.20;8.07;;;;;;;-145.70;100.00;63560.63;5011314;28;20537;-62
2023/05/28 02:33:03;;;;;;;14.00;8.45;;;;;;;-145.70;100.00;63560.63;5014840;28;20052;-63
2023/05/28 02:36:30;;;;;;;11.73;7.55;;;;;;;-145.70;100.00;63560.63;5010053;28;20620;-63
2023/05/28 02:40:00;;;;;;;11.13;7.47;;;;;;;-145.70;100.00;63560.63;5016122;28;20151;-61
2023/05/28 02:43:24;;;;;;;11.00;7.65;;;;;;;-145.70;100.00;63560.63;5017168;28;20531;-61
2023/05/28 02:46:48;;;;;;;12.30;7.30;;;;;;;-145.70;100.00;63560.63;4992657;28;20048;-60
2023/05/28 02:50:12;;;;;;;12.50;7.28;;;;;;;-145.70;100.00;63560.63;4992558;28;20072;-62
2023/05/28 02:53:45;;;;;;;12.00;7.20;;;;;;;-145.70;100.00;63560.63;4979199;28;20099;-64
2023/05/28 02:57:12;;;;;;;10.70;6.70;;;;;;;-145.70;100.00;63560.63;5018033;28;20717;-61
2023/05/28 03:00:42;;;;;;;9.02;6.63;;;;;;;-145.70;100.00;63560.63;5003392;28;20033;-62
2023/05/28 03:04:08;;;;;;;10.57;6.65;;;;;;;-145.70;100.00;63560.63;4998174;28;20037;-63
2023/05/28 03:07:34;;;;;;;9.82;6.57;;;;;;;-145.70;100.00;63560.63;4992607;28;20030;-61
2023/05/28 03:10:58;;;;;;;9.63;6.18;;;;;;;-145.70;100.00;63560.63;4994261;28;20641;-61
2023/05/28 03:14:25;;;;;;;12.38;7.00;;;;;;;-145.70;100.00;63560.63;4990222;28;20609;-60
2023/05/28 03:17:52;;;;;;;10.55;6.97;;;;;;;-145.70;100.00;63560.63;4985604;28;20061;-62
2023/05/28 03:21:18;;;;;;;9.95;7.00;;;;;;;-145.70;100.00;63560.63;5010114;28;20022;-62
2023/05/28 03:24:44;;;;;;;10.77;7.38;;;;;;;-145.70;100.00;63560.63;4975385;28;20145;-61
2023/05/28 03:28:08;;;;;;;9.60;6.90;;;;;;;-145.70;100.00;63560.63;4997814;28;20028;-60
2023/05/28 03:31:45;;;;;;;10.48;6.50;;;;;;;-145.70;100.00;63560.63;4982654;28;20052;-61
2023/05/28 03:35:11;;;;;;;10.25;6.57;;;;;;;-145.70;100.00;63560.63;5007185;28;20030;-61
2023/05/28 03:38:35;;;;;;;9.82;6.57;;;;;;;-145.70;100.00;63560.63;4999559;28;20037;-62
2023/05/28 03:41:59;;;;;;;11.20;7.05;;;;;;;-145.70;100.00;63560.63;5010191;28;20657;-61
2023/05/28 03:45:26;;;;;;;11.95;7.05;;;;;;;-145.70;100.00;63560.63;5014567;28;20871;-63
2023/05/28 03:48:55;;;;;;;10.98;6.32;;;;;;;-145.70;100.00;63560.63;5015450;28;20044;-61
2023/05/28 03:52:29;;;;;;;10.38;6.80;;;;;;;-145.70;100.00;63560.63;5023448;28;20140;-61
2023/05/28 03:55:53;;;;;;;9.65;6.40;;;;;;;-145.70;100.00;63560.63;5011601;28;20040;-64
2023/05/28 03:59:26;;;;;;;10.93;7.00;;;;;;;-145.70;100.00;63560.63;5024494;28;20043;-62
2023/05/28 04:02:56;;;;;;;10.50;6.72;;;;;;;-145.70;100.00;63560.63;5035601;28;20522;-60
2023/05/28 04:06:23;;;;;;;;;;;;;;;-145.70;100.00;63560.63;5014605;28;20798;-61
2023/05/28 04:09:52;;;;;;;10.15;6.07;;;;;;;-145.70;100.00;63560.63;4996876;28;20007;-62
2023/05/28 04:13:16;;;;;;;10.63;6.28;;;;;;;-145.70;100.00;63560.63;4997812;28;20044;-60
2023/05/28 04:16:43;;;;;;;11.02;6.82;;;;;;;-145.70;100.00;63560.63;5035018;28;20478;-60
2023/05/28 04:20:21;;;;;;;10.80;6.22;;;;;;;-145.70;100.00;63560.63;5012759;28;20039;-61
2023/05/28 04:23:51;;;;;;;11.40;6.70;;;;;;;-145.70;100.00;63560.63;5012359;28;20103;-61
2023/05/28 04:27:23;;;;;;;9.35;6.03;;;;;;;-145.70;100.00;63560.63;5013068;28;20615;-63
2023/05/28 04:30:50;;;;;;;9.98;6.97;;;;;;;-145.70;100.00;63560.63;5028809;28;20774;-62
2023/05/28 04:34:16;;;;;;;10.25;6.57;;;;;;;-145.70;100.00;63560.63;5013212;28;20098;-62
2023/05/28 04:37:44;;;;;;;10.02;6.53;;;;;;;-145.70;100.00;63560.63;5017892;28;20083;-62
2023/05/28 04:41:20;;;;;;;10.27;7.00;;;;;;;-145.70;100.00;63560.63;5013236;28;20056;-60
2023/05/28 04:44:44;;;;;;;10.05;6.85;;;;;;;-145.70;100.00;63560.63;5012465;28;20391;-62
2023/05/28 04:48:08;;;;;;;10.13;6.18;;;;;;;-145.70;100.00;63560.63;5013573;28;20055;-60
2023/05/28 04:51:37;;;;;;;10.07;6.03;;;;;;;-145.70;100.00;63560.63;5011051;28;20039;-60
2023/05/28 04:55:03;;;;;;;11.20;6.28;;;;;;;-145.70;100.00;63560.63;5025006;28;20033;-59
2023/05/28 04:58:32;;;;;;;9.68;5.55;;;;;;;-145.70;100.00;63560.63;5010443;28;20030;-64
2023/05/28 05:02:01;;;;;;;9.05;5.75;;;;;;;-145.70;100.00;63560.63;5007776;28;20060;-63
2023/05/28 05:05:25;;;;;;;10.05;6.07;;;;;;;-145.70;100.00;63560.63;5031783;28;20064;-61
2023/05/28 05:08:51;;;;;;;11.07;5.70;;;;;;;-145.70;100.00;63560.63;4997961;28;20040;-61
2023/05/28 05:12:23;;;;;;;9.27;5.90;;;;;;;-145.70;100.00;63560.63;5006883;28;20035;-63
2023/05/28 05:15:52;;;;;;;8.05;5.07;;;;;;;-145.70;100.00;63560.63;5010515;28;20040;-62
2023/05/28 05:19:21;;;;;;;8.70;5.55;;;;;;;-145.70;100.00;63560.63;5006971;28;20149;-63
2023/05/28 05:22:48;;;;;;;;;;;;;;;-145.70;100.00;63560.63;5006265;28;20040;-64
2023/05/28 05:26:16;;;;;;;9.30;5.22;;;;;;;-145.70;100.00;63560.63;5007264;28;19920;-62
2023/05/28 05:29:40;;;;;;;10.73;5.63;;;;;;;-145.70;100.00;63560.63;5017641;28;20033;-61
2023/05/28 05:33:07;;;;;;;8.75;5.70;;;;;;;-145.70;100.00;63560.63;5022151;28;20612;-60
2023/05/28 05:36:40;;;;;;;8.75;5.57;;;;;;;-145.70;100.00;63560.63;5022302;28;20285;-61
2023/05/28 05:40:08;;;;;;;10.27;5.68;;;;;;;-145.70;100.00;63560.63;5014064;28;20028;-61
2023/05/28 05:43:44;;;;;;;9.63;5.55;;;;;;;-145.70;100.00;63560.63;5015791;28;20507;-63
2023/05/28 05:47:11;;;;;;;8.10;5.15;;;;;;;-145.70;100.00;63560.63;5010050;28;20124;-60
2023/05/28 05:50:55;;;;;;;8.80;5.43;;;;;;;-145.70;100.00;63560.63;5013730;28;20148;-61
2023/05/28 05:54:19;;;;;;;9.93;5.30;;;;;;;-145.70;100.00;63560.63;5019399;28;20036;-61
2023/05/28 05:57:45;;;;;;;8.35;4.95;;;;;;;-145.70;100.00;63560.63;5027835;28;20029;-60
2023/05/28 06:01:13;;;;;;;6.80;4.65;;;;;;;-145.70;100.00;63560.63;5016450;28;20032;-61
2023/05/28 06:04:43;;;;;;;8.13;4.53;;;;;;;-145.70;100.00;63560.63;5015573;28;20021;-62
2023/05/28 06:08:09;;;;;;;9.35;5.18;;;;;;;-145.70;100.00;63560.63;5036969;28;20539;-60
2023/05/28 06:11:41;;;;;;;7.90;4.93;;;;;;;-145.70;100.00;63560.63;5010100;28;20062;-63
2023/05/28 06:15:08;;;;;;;8.02;5.07;;;;;;;-145.70;100.00;63560.63;5005701;28;21284;-58
2023/05/28 06:18:47;;;;;;;9.77;4.88;;;;;;;-145.70;100.00;63560.63;5005433;28;20034;-63
2023/05/28 06:22:20;;;;;;;9.75;4.97;;;;;;;-145.70;100.00;63560.63;5029515;28;20430;-59
2023/05/28 06:25:50;;;;;;;8.05;5.03;;;;;;;-145.70;100.00;63560.63;5014910;28;20353;-62
2023/05/28 06:29:19;;;;;;;8.45;5.13;;;;;;;-145.70;100.00;63560.63;5033854;28;20033;-62
2023/05/28 06:32:45;;;;;;;9.07;5.05;;;;;;;-145.70;100.00;63560.63;5007757;28;20046;-61
2023/05/28 06:36:15;;;;;;;9.13;5.00;;;;;;;-145.70;100.00;63560.63;5013301;28;20087;-61
2023/05/28 06:39:42;;;;;;;8.45;4.75;;;;;;;-145.70;100.00;63560.63;5016768;28;20781;-61
2023/05/28 06:43:06;;;;;;;7.82;4.78;;;;;;;-145.70;100.00;63560.63;5007810;28;20033;-61
2023/05/28 06:46:33;;;;;;;7.85;4.97;;;;;;;-145.70;100.00;63560.63;5029180;28;20052;-61
2023/05/28 06:49:57;;;;;;;9.27;5.57;;;;;;;-145.70;100.00;63560.63;5008333;28;20084;-61
2023/05/28 06:53:23;;;;;;;10.32;5.25;;;;;;;-145.70;100.00;63560.63;4995758;28;20442;-62
2023/05/28 06:56:47;;;;;;;7.00;4.50;;;;;;;-145.70;100.00;63560.63;5008509;28;20039;-61
2023/05/28 07:00:16;;;;;;;7.65;4.60;;;;;;;-145.70;100.00;63560.63;5006464;28;20061;-61
2023/05/28 07:04:01;;;;;;;;;;;;;;;-145.70;100.00;63560.63;5011588;28;20127;-61
2023/05/28 07:07:25;;;;;;;8.65;4.38;;;;;;;-145.70;100.00;63560.63;5031161;28;19959;-63
2023/05/28 07:11:01;;;;;;;8.30;4.78;;;;;;;-145.70;100.00;63560.63;4987537;28;20160;-63
2023/05/28 07:14:30;;;;;;;8.55;4.53;;;;;;;-145.70;100.00;63560.63;5009562;28;20059;-62
2023/05/28 07:17:56;;;;;;;8.10;5.00;;;;;;;-145.70;100.00;63560.63;5028286;28;20124;-65
2023/05/28 07:21:24;;;;;;;7.45;4.30;;;;;;;-145.70;100.00;63560.63;5013665;28;20041;-61
2023/05/28 07:24:48;;;;;;;6.95;4.28;;;;;;;-145.70;100.00;63560.63;4994761;28;20076;-62
2023/05/28 07:28:14;;;;;;;11.20;4.82;;;;;;;-145.70;100.00;63560.63;5021197;28;20045;-59
2023/05/28 07:31:46;;;;;;;8.90;5.40;;;;;;;-145.70;100.00;63560.63;5012510;28;20372;-60
2023/05/28 07:35:12;;;;;;;8.45;4.88;;;;;;;-145.70;100.00;63560.63;4998037;28;20056;-61
2023/05/28 07:38:39;;;;;;;8.45;4.90;;;;;;;-145.70;100.00;63560.63;5023059;28;20037;-58
2023/05/28 07:42:03;;;;;;;7.53;4.63;;;;;;;-145.70;100.00;63560.63;4987795;28;20032;-59
2023/05/28 07:45:27;;;;;;;9.23;4.82;;;;;;;-145.70;100.00;63560.63;5002820;28;20071;-62
2023/05/28 07:48:51;;;;;;;9.20;4.60;;;;;;;-145.70;100.00;63560.63;5000389;28;20033;-62
2023/05/28 07:52:20;;;;;;;7.18;4.30;;;;;;;-145.70;100.00;63560.63;5008125;28;20029;-63
2023/05/28 07:55:50;;;;;;;8.45;4.50;;;;;;;-145.70;100.00;63560.63;5028595;28;20052;-64
2023/05/28 07:59:21;;;;;;;6.97;4.07;;;;;;;-145.70;100.00;63560.63;5010650;28;20069;-62
2023/05/28 08:02:50;;;;;;;7.82;4.22;;;;;;;-145.70;100.00;63560.63;5025984;28;20021;-62
2023/05/28 08:06:18;;;;;;;8.55;4.28;;;;;;;-145.70;100.00;63560.63;5004318;28;20040;-63
2023/05/28 08:09:42;;;;;;;9.25;4.35;;;;;;;-145.70;100.00;63560.63;5028219;28;20060;-62
2023/05/28 08:13:06;;;;;;;6.72;4.07;;;;;;;-145.70;100.00;63560.63;4994122;28;20547;-61
2023/05/28 08:16:31;;;;;;;6.63;3.95;;;;;;;-145.70;100.00;63560.63;4989079;28;20373;-60
2023/05/28 08:20:00;;;;;;;7.80;4.45;;;;;;;-145.70;100.00;63560.63;5009059;28;20134;-60
2023/05/28 08:23:27;;;;;;;7.88;5.30;;;;;;;-145.70;100.00;63560.63;5002381;28;20036;-62
2023/05/28 08:26:51;;;;;;;8.48;4.00;;;;;;;-145.70;100.00;63560.63;5006217;28;20083;-59
2023/05/28 08:30:18;;;;;;;6.88;4.30;;;;;;;-145.70;100.00;63560.63;4986026;28;20083;-63
2023/05/28 08:33:45;;;;;;;7.43;4.10;;;;;;;-145.70;100.00;63560.63;4996231;28;20033;-60
2023/05/28 08:37:12;;;;;;;7.75;4.03;;;;;;;-145.70;100.00;63560.63;5005788;28;20616;-60
2023/05/28 08:40:46;;;;;;;7.60;4.50;;;;;;;-145.70;100.00;63560.63;5000730;28;20018;-60
2023/05/28 08:44:17;;;;;;;7.38;4.20;;;;;;;-145.70;100.00;63560.63;4974726;28;20038;-60
2023/05/28 08:47:48;;;;;;;8.15;4.25;;;;;;;-145.70;100.00;63560.63;4964880;28;20041;-62
2023/05/28 08:51:15;;;;;;;9.27;4.20;;;;;;;-145.70;100.00;63560.63;4992294;28;20026;-61
2023/05/28 08:54:46;;;;;;;8.52;4.70;;;;;;;-145.70;100.00;63560.63;5006343;28;20050;-62
2023/05/28 08:58:10;;;;;;;7.72;4.13;;;;;;;-145.70;100.00;63560.63;4985867;28;20669;-62
2023/05/28 09:01:35;;;;;;;7.68;4.13;;;;;;;-145.70;100.00;63560.63;4996662;28;20037;-62
2023/05/28 09:05:04;;;;;;;9.57;6.30;;;;;;;-145.70;100.00;63560.63;4993134;28;20128;-60
2023/05/28 09:08:28;;;;;;;9.23;4.20;;;;;;;-145.70;100.00;63560.63;4983565;28;20620;-61
2023/05/28 09:11:58;;;;;;;6.50;4.20;;;;;;;-145.70;100.00;63560.63;4991591;28;20041;-60
2023/05/28 09:15:23;;;;;;;7.68;4.00;;;;;;;-145.70;100.00;63560.63;4994049;28;20075;-60
2023/05/28 09:18:55;;;;;;;7.35;3.75;;;;;;;-145.70;100.00;63560.63;4990559;28;20038;-59
2023/05/28 09:22:27;;;;;;;6.80;4.03;;;;;;;-145.70;100.00;63560.63;5007122;28;20037;-59
2023/05/28 09:26:00;;;;;;;7.97;4.40;;;;;;;-145.70;100.00;63560.63;4986824;28;20037;-61
2023/05/28 09:29:25;;;;;;;7.50;4.25;;;;;;;-145.70;100.00;63560.63;4978739;28;20030;-60
2023/05/28 09:33:02;;;;;;;9.57;4.25;;;;;;;-145.70;100.00;63560.63;4987382;28;20033;-60
2023/05/28 09:36:32;;;;;;;7.80;4.32;;;;;;;-145.70;100.00;63560.63;4991281;28;20041;-61
2023/05/28 09:40:03;;;;;;;8.20;4.30;;;;;;;-145.70;100.00;63560.63;5009420;28;20035;-61
2023/05/28 09:43:40;;;;;;;8.82;4.82;;;;;;;-145.70;100.00;63560.63;5013761;28;20040;-62
2023/05/28 09:47:14;;;;;;;8.65;4.07;;;;;;;-145.70;100.00;63560.63;5000603;28;20042;-61
2023/05/28 09:51:00;;;;;;;6.97;3.75;;;;;;;-145.70;100.00;63560.63;5001291;28;20511;-61
2023/05/28 09:54:28;;;;;;;7.00;4.40;;;;;;;-145.70;100.00;63560.63;5020753;28;20021;-63
2023/05/28 09:58:11;;;;;;;8.35;4.53;;;;;;;-145.70;100.00;63560.63;5012905;28;20594;-60
2023/05/28 10:01:49;;;;;;;6.68;3.95;;;;;;;-145.70;100.00;63560.63;5027913;28;20064;-63
2023/05/28 10:05:16;;;;;;;7.07;4.32;;;;;;;-145.70;100.00;63560.63;5007994;28;20211;-60
2023/05/28 10:08:43;;;;;;;6.78;4.32;;;;;;;-145.70;100.00;63560.63;5024186;28;20021;-62
2023/05/28 10:12:15;;;;;;;7.18;4.40;;;;;;;-145.70;100.00;63560.63;5011620;28;20025;-63
2023/05/28 10:15:41;;;;;;;6.78;4.50;;;;;;;-145.70;100.00;63560.63;5024033;28;20536;-60
2023/05/28 10:19:19;;;;;;;8.18;5.03;;;;;;;-145.70;100.00;63560.63;5010470;28;20071;-63
2023/05/28 10:22:47;;;;;;;6.88;4.50;;;;;;;-145.70;100.00;63560.63;5008032;28;20037;-61
2023/05/28 10:26:14;;;;;;;9.55;5.05;;;;;;;-145.70;100.00;63560.63;5013562;28;20528;-62
2023/05/28 10:29:44;;;;;;;9.80;5.22;;;;;;;-145.70;100.00;63560.63;5007775;28;20060;-63
2023/05/28 10:33:20;;;;;;;9.25;4.72;;;;;;;-145.70;100.00;63560.63;5011891;28;20128;-63
2023/05/28 10:36:51;;;;;;;8.27;4.90;;;;;;;-145.70;100.00;63560.63;4987758;28;20050;-64
2023/05/28 10:40:24;;;;;;;9.05;5.07;;;;;;;-145.70;100.00;63560.63;4989758;28;20063;-61
2023/05/28 10:43:48;;;;;;;8.55;5.43;;;;;;;-145.70;100.00;63560.63;5023095;28;20056;-61
2023/05/28 10:47:37;;;;;;;7.93;5.10;;;;;;;-145.70;100.00;63560.63;5010966;28;20024;-63
2023/05/28 10:51:07;;;;;;;7.60;4.68;;;;;;;-145.70;100.00;63560.63;5005077;28;20522;-62
2023/05/28 10:54:40;;;;;;;8.55;5.60;;;;;;;-145.70;100.00;63560.63;4997240;28;20029;-60
2023/05/28 10:58:13;;;;;;;7.78;5.07;;;;;;;-145.70;100.00;63560.63;5013299;28;20075;-62
2023/05/28 11:01:40;;;;;;;9.32;4.57;;;;;;;-145.70;100.00;63560.63;5025183;28;20021;-63
2023/05/28 11:05:12;;;;;;;10.55;4.95;;;;;;;-145.70;100.00;63560.63;5008628;28;20506;-63
2023/05/28 11:08:44;;;;;;;8.38;5.10;;;;;;;-145.70;100.00;63560.63;4992335;28;20033;-62
2023/05/28 11:12:16;;;;;;;7.82;4.70;;;;;;;-145.70;100.00;63560.63;4997967;28;20559;-61
2023/05/28 11:15:52;;;;;;;;;;;;;;;;;;;;;
2023/05/28 11:19:16;;;;;;;8.10;4.65;;;;;;;-145.70;100.00;63560.63;5023752;28;20035;-63
2023/05/28 11:22:53;;;;;;;7.47;4.85;;;;;;;-145.70;100.00;63560.63;5005738;28;20068;-62
2023/05/28 11:26:27;;;;;;;8.23;4.90;;;;;;;-145.70;100.00;63560.63;5011625;28;20094;-60
2023/05/28 11:29:56;;;;;;;8.32;5.07;;;;;;;-145.70;100.00;63560.63;4996857;28;20159;-60
2023/05/28 11:33:22;;;;;;;7.90;4.77;;;;;;;-145.70;100.00;63560.63;5008655;28;20053;-63
2023/05/28 11:36:59;;;;;;;9.05;4.75;;;;;;;-145.70;100.00;63560.63;4995454;28;20463;-61
2023/05/28 11:40:35;;;;;;;8.80;4.90;;;;;;;-145.70;100.00;63560.63;5011277;28;20036;-61
2023/05/28 11:43:59;;;;;;;7.00;4.63;;;;;;;-145.70;100.00;63560.63;5016518;28;20033;-62
2023/05/28 11:47:29;;;;;;;9.38;5.13;;;;;;;-145.70;100.00;63560.63;5013213;28;20521;-61
2023/05/28 11:51:02;;;;;;;8.38;4.95;;;;;;;-145.70;100.00;63560.63;5014227;28;20045;-62
2023/05/28 11:54:36;;;;;;;7.85;4.90;;;;;;;-145.70;100.00;63560.63;5017484;28;20041;-61
2023/05/28 11:58:05;;;;;;;7.45;4.45;;;;;;;-145.70;100.00;63560.63;5013505;28;20036;-61
2023/05/28 12:01:40;;;;;;;7.22;4.05;;;;;;;-145.70;100.00;63560.63;5002869;28;20025;-60
2023/05/28 12:05:05;;;;;;;7.63;4.32;;;;;;;-145.70;100.00;63560.63;5014575;28;20136;-60
2023/05/28 12:08:32;;;;;;;7.75;4.72;;;;;;;-145.70;100.00;63560.63;5001741;28;20696;-63
2023/05/28 12:12:01;;;;;;;8.48;5.18;;;;;;;-145.70;100.00;63560.63;5032658;28;20092;-63
2023/05/28 12:15:34;;;;;;;7.68;4.78;;;;;;;-145.70;100.00;63560.63;5003558;28;20090;-60
2023/05/28 12:19:14;;;;;;;8.02;4.95;;;;;;;-145.70;100.00;63560.63;5013014;28;20046;-61
2023/05/28 12:22:40;;;;;;;7.50;4.55;;;;;;;-145.70;100.00;63560.63;5001835;28;20037;-62
2023/05/28 12:26:08;;;;;;;8.30;4.70;;;;;;;-145.70;100.00;63560.63;5032167;28;20107;-62
2023/05/28 12:29:33;;;;;;;8.50;4.90;;;;;;;-145.70;100.00;63560.63;5018332;28;20025;-61
2023/05/28 12:33:04;;;;;;;8.40;5.18;;;;;;;-145.70;100.00;63560.63;5011344;28;20025;-62
2023/05/28 12:36:32;;;;;;;7.70;5.03;;;;;;;-145.70;100.00;63560.63;5009811;28;20053;-61
2023/05/28 12:40:03;;;;;;;8.98;5.22;;;;;;;-145.70;100.00;63560.63;4998512;28;20466;-61
2023/05/28 12:43:29;;;;;;;6.80;4.60;;;;;;;-145.70;100.00;63560.63;5018766;28;20086;-63
2023/05/28 12:46:53;;;;;;;9.13;4.85;;;;;;;-145.70;100.00;63560.63;5019165;28;20603;-62
2023/05/28 12:50:23;;;;;;;7.38;4.57;;;;;;;-145.70;100.00;63560.63;5013811;28;20045;-62
2023/05/28 12:53:52;;;;;;;8.50;4.80;;;;;;;-145.70;100.00;63560.63;5024492;28;20028;-61
2023/05/28 12:57:19;;;;;;;7.28;4.32;;;;;;;-145.70;100.00;63560.63;5014939;28;20060;-64
2023/05/28 13:00:46;;;;;;;7.35;5.18;;;;;;;-145.70;100.00;63560.63;5019029;28;20083;-63
2023/05/28 13:04:10;;;;;;;8.00;4.50;;;;;;;-145.70;100.00;63560.63;5004094;28;20043;-63
2023/05/28 13:07:39;;;;;;;7.28;4.68;;;;;;;-145.70;100.00;63560.63;5019468;28;20045;-60
2023/05/28 13:11:03;;;;;;;;;;;;;;;-145.70;100.00;63560.63;5001811;28;20464;-61
2023/05/28 13:14:33;;;;;;;8.15;4.70;;;;;;;-145.70;100.00;63560.63;5005770;28;20015;-62
2023/05/28 13:17:59;;;;;;;;;;;;;;;-145.70;100.00;63560.63;4997266;28;20159;-60
2023/05/28 13:21:25;;;;;;;7.28;4.60;;;;;;;-145.70;100.00;63560.63;5020863;28;19920;-61
2023/05/28 13:24:49;;;;;;;9.18;4.57;;;;;;;-145.70;100.00;63560.63;5019620;28;20029;-63
2023/05/28 13:28:14;;;;;;;8.10;5.10;;;;;;;-145.70;100.00;63560.63;5029787;28;20033;-60
2023/05/28 13:31:41;;;;;;;7.38;4.50;;;;;;;-145.70;100.00;63560.63;5026676;28;20128;-60
2023/05/28 13:35:11;;;;;;;7.47;4.45;;;;;;;-145.70;100.00;63560.63;5022609;28;20033;-63
2023/05/28 13:38:35;;;;;;;6.75;4.15;;;;;;;-145.70;100.00;63560.63;5028022;28;20041;-60
2023/05/28 13:41:59;;;;;;;7.13;4.32;;;;;;;-145.70;100.00;63560.63;5019023;28;20026;-64
2023/05/28 13:45:31;;;;;;;6.78;4.60;;;;;;;-145.70;100.00;63560.63;5009783;28;20313;-62
2023/05/28 13:48:57;;;;;;;7.10;4.80;;;;;;;-145.70;100.00;63560.63;5023817;28;20033;-64
2023/05/28 13:52:27;;;;;;;8.60;4.32;;;;;;;-145.70;100.00;63560.63;5015225;28;20044;-63
2023/05/28 13:55:51;;;;;;;7.40;4.47;;;;;;;-145.70;100.00;63560.63;5036292;28;20521;-61
2023/05/28 13:59:18;;;;;;;8.15;4.15;;;;;;;-145.70;100.00;63560.63;5000179;28;20829;-61
2023/05/28 14:03:02;;;;;;;7.82;4.60;;;;;;;-145.70;100.00;63560.63;5026580;28;20031;-63
2023/05/28 14:06:28;;;;;;;8.57;4.78;;;;;;;-145.70;100.00;63560.63;5027323;28;20582;-63
2023/05/28 14:09:55;;;;;;;9.55;4.70;;;;;;;-145.70;100.00;63560.63;5015953;28;20067;-61
2023/05/28 14:13:22;;;;;;;9.10;5.20;;;;;;;-145.70;100.00;63560.63;5016688;28;20592;-63
2023/05/28 14:17:06;;;;;;;7.22;4.90;;;;;;;-145.70;100.00;63560.63;5011898;28;20029;-63
2023/05/28 14:20:34;;;;;;;8.30;5.13;;;;;;;-145.70;100.00;63560.63;5011397;28;20032;-60
2023/05/28 14:24:06;;;;;;;7.75;4.75;;;;;;;-145.70;100.00;63560.63;4996102;28;20033;-60
2023/05/28 14:27:33;;;;;;;8.32;4.80;;;;;;;-145.70;100.00;63560.63;5012034;28;20103;-62
2023/05/28 14:30:57;;;;;;;7.00;4.68;;;;;;;-145.70;100.00;63560.63;5018764;28;20033;-60
2023/05/28 14:34:22;;;;;;;7.28;4.90;;;;;;;-145.70;100.00;63560.63;5020655;28;20060;-59
2023/05/28 14:37:00;;;;;;;7.95;4.68;;;;;;;-145.70;100.00;63560.63;5029017;28;20140;-63
2023/05/28 14:40:32;;;;;;;6.95;4.63;;;;;;;-145.70;100.00;63560.63;5017554;28;20142;-62
2023/05/28 14:43:59;;;;;;;7.85;5.03;;;;;;;-145.70;100.00;63560.63;5003256;28;20036;-60
2023/05/28 14:47:23;;;;;;;7.63;5.00;;;;;;;-145.70;100.00;63560.63;4999581;28;20032;-62
2023/05/28 14:50:47;;;;;;;7.53;4.65;;;;;;;-145.70;100.00;63560.63;5012736;28;20036;-62
2023/05/28 14:54:11;;;;;;;7.32;4.60;;;;;;;-145.70;100.00;63560.63;4991636;28;20061;-61
2023/05/28 14:57:36;;;;;;;8.77;4.95;;;;;;;-145.70;100.00;63560.63;5023740;28;20610;-59
2023/05/28 15:01:02;;;;;;;8.95;4.93;;;;;;;-145.70;100.00;63560.63;5015148;28;20063;-60
2023/05/28 15:04:26;;;;;;;8.85;4.55;;;;;;;-145.70;100.00;63560.63;4998610;28;20080;-62
2023/05/28 15:08:02;;;;;;;8.05;4.72;;;;;;;-145.70;100.00;63560.63;5007103;28;20495;-61
2023/05/28 15:11:35;;;;;;;7.88;5.00;;;;;;;-145.70;100.00;63560.63;5015097;28;20036;-61
2023/05/28 15:15:03;;;;;;;7.95;5.10;;;;;;;-145.70;100.00;63560.63;4989539;28;20040;-61
2023/05/28 15:18:36;;;;;;;9.32;5.07;;;;;;;-145.70;100.00;63560.63;5013001;28;20037;-60
2023/05/28 15:22:02;;;;;;;7.68;4.85;;;;;;;-145.70;100.00;63560.63;5005107;28;20021;-60
2023/05/28 15:25:26;;;;;;;8.88;5.70;;;;;;;-145.70;100.00;63560.63;5029061;28;20032;-60
2023/05/28 15:28:55;;;;;;;7.25;5.10;;;;;;;-145.70;100.00;63560.63;5028470;28;20103;-61
2023/05/28 15:32:22;;;;;;;;;;;;;;;-145.70;100.00;63560.63;5013232;28;20575;-61
2023/05/28 15:35:48;;;;;;;8.40;6.00;;;;;;;-145.70;100.00;63560.63;5013304;28;19975;-60
2023/05/28 15:39:15;;;;;;;8.48;5.50;;;;;;;-145.70;100.00;63560.63;5016594;28;20107;-61
2023/05/28 15:42:44;;;;;;;9.00;6.15;;;;;;;-145.70;100.00;63560.63;5001381;28;20050;-60
2023/05/28 15:46:11;;;;;;;8.98;6.07;;;;;;;-145.70;100.00;63560.63;5019867;28;20025;-60